Time;durP1;ratioP1;P1;durP2;ratioP2;P2;SDS_P1;SDS_P2;PMS_P1;PMS_P2;Temp;Humidity;BMP_temperature;BMP_pressure;BME280_temperature;BME280_humidity;BME280_pressure;Samples;Min_cycle;Max_cycle;Signal;HPM_P1;HPM_P2
2022/01/29 00:01:24;;;;;;;6.00;4.90;;;;;;;5.75;45.05;99968.03;6306191;22;20030;-76
2022/01/29 00:03:50;;;;;;;6.63;4.43;;;;;;;5.45;44.92;99919.19;6305818;22;20027;-76
2022/01/29 00:06:16;;;;;;;8.07;4.57;;;;;;;5.48;45.08;99921.53;6306083;22;19995;-76
2022/01/29 00:08:43;;;;;;;6.90;4.47;;;;;;;5.31;44.96;99899.47;6278596;22;20354;-76
2022/01/29 00:11:12;;;;;;;6.23;4.40;;;;;;;5.22;45.06;99886.38;6305733;22;20121;-77
2022/01/29 00:13:38;;;;;;;5.47;4.33;;;;;;;5.71;45.25;99970.09;6278502;22;20003;-77
2022/01/29 00:16:04;;;;;;;13.23;4.70;;;;;;;6.08;45.12;100036.78;6305667;22;20006;-76
2022/01/29 00:18:29;;;;;;;7.03;4.33;;;;;;;5.70;44.43;99964.97;6305609;22;20027;-76
2022/01/29 00:20:55;;;;;;;6.07;4.73;;;;;;;6.13;44.26;100042.44;6305779;22;19999;-76
2022/01/29 00:23:20;;;;;;;6.37;4.33;;;;;;;5.79;44.48;99977.25;6278519;22;20026;-77
2022/01/29 00:25:46;;;;;;;4.63;3.57;;;;;;;5.97;44.19;100001.88;6305683;22;20079;-78
2022/01/29 00:28:12;;;;;;;4.63;3.80;;;;;;;5.93;44.54;100000.47;6278393;22;19999;-76
2022/01/29 00:30:42;;;;;;;4.77;3.63;;;;;;;5.81;44.09;99987.59;6305816;22;20398;-76
2022/01/29 00:33:08;;;;;;;4.83;3.70;;;;;;;5.61;44.30;99948.28;6305525;22;20078;-76
2022/01/29 00:35:33;;;;;;;6.57;4.00;;;;;;;5.93;44.29;99986.53;6305489;22;20514;-76
2022/01/29 00:37:58;;;;;;;5.93;4.27;;;;;;;5.93;44.16;99991.78;6305713;22;19999;-76
2022/01/29 00:40:24;;;;;;;4.87;4.03;;;;;;;5.80;44.26;99976.28;6278334;22;20089;-76
2022/01/29 00:42:50;;;;;;;4.97;3.70;;;;;;;5.58;44.51;99948.56;6305747;22;20029;-76
2022/01/29 00:45:16;;;;;;;5.20;3.80;;;;;;;5.93;44.07;100003.09;6305802;22;20002;-76
2022/01/29 00:47:41;;;;;;;6.50;4.83;;;;;;;6.12;44.19;100039.00;6278231;22;19999;-76
2022/01/29 00:50:09;;;;;;;5.23;3.80;;;;;;;6.11;44.33;100039.97;6278347;22;20082;-76
2022/01/29 00:52:34;;;;;;;5.53;3.90;;;;;;;5.70;44.51;99980.69;6305314;22;20007;-76
2022/01/29 00:55:00;;;;;;;5.17;4.47;;;;;;;5.66;44.53;99976.69;6278272;22;20052;-76
2022/01/29 00:57:28;;;;;;;5.50;4.83;;;;;;;5.95;44.40;100018.72;6278151;22;20360;-76
2022/01/29 00:59:54;;;;;;;7.20;5.17;;;;;;;6.14;44.14;100047.56;6305349;22;20352;-77
2022/01/29 01:02:19;;;;;;;7.07;4.63;;;;;;;5.85;44.15;100004.72;6305854;22;19998;-76
2022/01/29 01:04:45;;;;;;;6.63;4.97;;;;;;;5.43;44.35;99950.75;6305352;22;20006;-78
2022/01/29 01:07:11;;;;;;;5.63;5.03;;;;;;;5.79;44.52;100020.97;6278081;22;20070;-76
2022/01/29 01:09:37;;;;;;;7.77;4.73;;;;;;;5.77;44.33;100009.81;6305534;22;20023;-77
2022/01/29 01:12:03;;;;;;;7.37;5.20;;;;;;;5.87;44.25;100011.47;6305286;22;20017;-76
2022/01/29 01:14:29;;;;;;;6.17;4.33;;;;;;;6.08;44.62;100053.34;6305276;22;20325;-78
2022/01/29 01:16:54;;;;;;;6.17;4.70;;;;;;;5.51;44.29;99951.88;6305259;22;19999;-77
2022/01/29 01:19:25;;;;;;;6.80;5.20;;;;;;;6.05;44.44;100036.09;6305441;22;19995;-76
2022/01/29 01:21:52;;;;;;;7.83;5.50;;;;;;;5.81;44.21;100006.78;6305261;22;20005;-77
2022/01/29 01:24:17;;;;;;;7.07;5.17;;;;;;;5.87;44.37;99997.53;6305381;22;19998;-77
2022/01/29 01:26:42;;;;;;;4.70;4.10;;;;;;;6.04;44.17;100031.00;6305629;22;19999;-76
2022/01/29 01:29:08;;;;;;;7.03;5.23;;;;;;;5.85;44.48;100007.34;6304979;22;20006;-76
2022/01/29 01:31:33;;;;;;;7.13;4.97;;;;;;;5.51;44.41;99965.78;6305413;22;20074;-76
2022/01/29 01:33:59;;;;;;;6.90;4.37;;;;;;;5.88;44.35;100031.47;6305147;22;20325;-77
2022/01/29 01:36:26;;;;;;;8.23;4.70;;;;;;;5.29;44.29;99931.97;6305074;22;20005;-77
2022/01/29 01:39:02;;;;;;;7.83;4.60;;;;;;;5.65;44.10;99998.63;6305386;22;20349;-77
2022/01/29 01:41:28;;;;;;;7.63;5.13;;;;;;;5.50;43.69;99972.00;6305015;22;19999;-77
2022/01/29 01:44:01;;;;;;;5.43;4.33;;;;;;;5.84;43.98;100031.88;6305166;22;20071;-77
2022/01/29 01:46:28;;;;;;;7.07;5.60;;;;;;;5.56;44.33;100009.91;6277807;22;20391;-77
2022/01/29 01:48:54;;;;;;;6.43;4.67;;;;;;;5.87;44.23;100029.00;6305040;22;19995;-77
2022/01/29 01:51:19;;;;;;;11.53;6.03;;;;;;;5.78;44.20;100040.28;6304847;22;20078;-77
2022/01/29 01:53:45;;;;;;;5.20;4.30;;;;;;;5.63;43.64;100019.72;6304889;22;20003;-77
2022/01/29 01:56:10;;;;;;;5.37;4.30;;;;;;;5.31;44.02;99953.63;6305095;22;20464;-77
2022/01/29 01:58:36;;;;;;;5.97;4.47;;;;;;;5.58;43.85;100008.81;6305111;22;20006;-77
2022/01/29 02:01:01;;;;;;;6.30;4.53;;;;;;;5.53;44.22;100011.00;6305219;22;20429;-77
2022/01/29 02:03:27;;;;;;;5.27;4.60;;;;;;;5.44;43.95;99983.00;6305065;22;19992;-77
2022/01/29 02:05:53;;;;;;;5.07;4.40;;;;;;;5.06;44.12;99940.03;6305066;22;19995;-77
2022/01/29 02:08:18;;;;;;;8.77;5.20;;;;;;;5.14;44.38;99980.41;6305501;22;19999;-77
2022/01/29 02:10:48;;;;;;;6.13;4.90;;;;;;;5.54;44.47;100032.78;6305208;22;20349;-77
2022/01/29 02:13:13;;;;;;;7.70;5.13;;;;;;;5.05;44.16;99937.53;6305031;22;20376;-77
2022/01/29 02:15:39;;;;;;;6.30;4.90;;;;;;;5.52;44.41;100021.63;6304938;22;20005;-77
2022/01/29 02:18:05;;;;;;;9.97;5.60;;;;;;;5.49;44.48;100017.47;6304858;22;20010;-77
2022/01/29 02:20:32;;;;;;;6.67;4.90;;;;;;;5.42;44.64;100005.88;6305190;22;20068;-77
2022/01/29 02:23:00;;;;;;;8.27;5.57;;;;;;;4.99;44.70;99954.59;6304958;22;19995;-77
2022/01/29 02:25:42;;;;;;;6.00;5.07;;;;;;;5.01;44.78;99944.81;6304913;22;19995;-78
2022/01/29 02:28:17;;;;;;;7.18;4.88;;;;;;;5.51;44.66;100018.16;6304752;22;20002;-77
2022/01/29 02:30:45;;;;;;;6.77;5.17;;;;;;;5.23;44.68;99983.09;6277368;22;20348;-78
2022/01/29 02:33:13;;;;;;;8.07;4.60;;;;;;;5.36;44.84;100027.34;6304776;22;20057;-77
2022/01/29 02:35:48;;;;;;;6.10;4.80;;;;;;;4.74;44.76;99926.28;6277660;22;20037;-77
2022/01/29 02:38:16;;;;;;;5.90;4.40;;;;;;;4.89;44.69;99958.13;6305355;22;20048;-76
2022/01/29 02:40:54;;;;;;;4.63;3.93;;;;;;;4.77;44.67;99936.47;6306002;22;20123;-77
2022/01/29 02:43:27;;;;;;;7.10;4.90;;;;;;;4.73;44.65;99928.06;6306836;22;20019;-77
2022/01/29 02:45:54;;;;;;;8.43;4.50;;;;;;;5.17;44.72;100015.00;6307318;22;20467;-77
2022/01/29 02:48:21;;;;;;;5.83;4.20;;;;;;;5.23;44.36;100017.13;6282026;22;20003;-78
2022/01/29 02:50:47;;;;;;;5.93;4.63;;;;;;;5.09;44.45;99986.88;6335008;22;19983;-77
2022/01/29 02:53:13;;;;;;;5.70;4.27;;;;;;;5.24;44.42;100023.19;6337848;22;20003;-78
2022/01/29 02:55:39;;;;;;;6.97;5.20;;;;;;;4.89;44.68;99966.81;6331170;22;20399;-77
2022/01/29 02:58:05;;;;;;;6.97;4.50;;;;;;;5.30;44.42;100033.13;6307059;22;19999;-77
2022/01/29 03:00:31;;;;;;;6.57;4.60;;;;;;;5.31;44.44;100034.78;6306978;22;20062;-77
2022/01/29 03:02:56;;;;;;;5.93;4.20;;;;;;;5.18;44.51;100010.59;6307012;22;19995;-77
2022/01/29 03:05:22;;;;;;;4.83;3.90;;;;;;;4.76;44.54;99955.75;6306395;22;19999;-77
2022/01/29 03:07:47;;;;;;;6.47;4.90;;;;;;;5.28;44.82;100038.50;6306766;22;20445;-77
2022/01/29 03:10:13;;;;;;;6.30;4.23;;;;;;;4.89;44.48;99971.22;6306670;22;19995;-77
2022/01/29 03:12:40;;;;;;;7.33;4.43;;;;;;;5.26;44.50;100021.25;6306599;22;20037;-77
2022/01/29 03:15:07;;;;;;;5.13;4.20;;;;;;;4.89;44.25;99952.91;6306348;22;20360;-77
2022/01/29 03:17:32;;;;;;;6.53;3.90;;;;;;;4.84;44.67;99961.16;6306190;22;20025;-77
2022/01/29 03:19:58;;;;;;;5.43;3.80;;;;;;;5.21;44.51;100023.44;6306324;22;20353;-77
2022/01/29 03:22:23;;;;;;;5.13;4.53;;;;;;;4.96;44.51;99978.41;6306437;22;19991;-77
2022/01/29 03:24:48;;;;;;;5.33;4.30;;;;;;;5.02;44.37;100000.59;6279074;22;19999;-77
2022/01/29 03:27:14;;;;;;;7.60;4.40;;;;;;;5.41;44.64;100065.28;6291369;22;19983;-78
2022/01/29 03:29:39;;;;;;;7.97;5.47;;;;;;;5.46;44.52;100067.50;6333692;22;19983;-78
2022/01/29 03:32:05;;;;;;;9.53;6.40;;;;;;;5.03;44.44;99992.63;6306251;22;20065;-77
2022/01/29 03:34:30;;;;;;;8.23;6.10;;;;;;;5.25;44.74;100024.84;6306526;22;20004;-77
2022/01/29 03:36:56;;;;;;;6.77;5.27;;;;;;;4.91;44.82;99971.91;6306419;22;20000;-77
2022/01/29 03:39:27;;;;;;;13.13;7.43;;;;;;;5.39;44.92;100055.91;6306357;22;20407;-77
2022/01/29 03:41:54;;;;;;;10.73;7.67;;;;;;;5.01;45.24;99994.53;6306913;22;20000;-77
2022/01/29 03:44:20;;;;;;;9.47;6.67;;;;;;;5.23;44.87;100040.69;6278849;22;19995;-78
2022/01/29 03:46:46;;;;;;;10.50;7.90;;;;;;;4.83;45.45;99988.28;6306039;22;20003;-77
2022/01/29 03:49:12;;;;;;;9.00;7.17;;;;;;;5.21;45.44;100047.84;6278774;22;20003;-77
2022/01/29 03:51:37;;;;;;;9.53;7.00;;;;;;;5.28;45.44;100056.00;6305929;22;20380;-78
2022/01/29 03:54:03;;;;;;;36.00;20.70;;;;;;;5.19;45.21;100048.91;6305817;22;20049;-77
2022/01/29 03:56:28;;;;;;;32.33;19.77;;;;;;;4.73;45.62;99979.53;6305937;22;20003;-77
2022/01/29 03:58:54;;;;;;;22.80;14.30;;;;;;;4.77;45.64;99987.00;6278689;22;20011;-77
2022/01/29 04:01:19;;;;;;;24.03;13.80;;;;;;;5.10;45.74;100045.28;6306095;22;20345;-77
2022/01/29 04:03:45;;;;;;;10.60;7.87;;;;;;;5.17;45.67;100062.13;6278733;22;20002;-77
2022/01/29 04:06:11;;;;;;;9.73;6.17;;;;;;;4.57;45.69;99974.78;6306044;22;20392;-77
2022/01/29 04:08:41;;;;;;;8.27;5.63;;;;;;;4.72;45.60;99996.19;6278632;22;20078;-77
2022/01/29 04:11:08;;;;;;;9.80;6.60;;;;;;;5.11;45.30;100060.84;6305770;22;20003;-77
2022/01/29 04:13:33;;;;;;;5.20;4.50;;;;;;;5.08;45.37;100062.91;6305707;22;20003;-77
2022/01/29 04:15:58;;;;;;;6.50;4.60;;;;;;;4.98;45.10;100051.56;6278661;22;20004;-77
2022/01/29 04:18:24;;;;;;;7.10;4.40;;;;;;;5.04;45.18;100062.31;6305806;22;20014;-77
2022/01/29 04:20:49;;;;;;;7.33;5.10;;;;;;;4.79;44.93;100024.31;6278511;22;19999;-77
2022/01/29 04:23:15;;;;;;;9.73;5.83;;;;;;;4.54;44.90;99992.50;6305869;22;19995;-84
2022/01/29 04:25:40;;;;;;;8.70;5.80;;;;;;;5.06;44.74;100063.03;6306061;22;20034;-84
2022/01/29 04:28:09;;;;;;;6.60;4.63;;;;;;;4.96;45.02;100053.47;6305868;22;20007;-84
2022/01/29 04:30:43;;;;;;;5.60;4.70;;;;;;;5.02;44.97;100068.66;6305960;22;20005;-84
2022/01/29 04:33:50;;;;;;;7.00;5.20;;;;;;;4.89;45.11;100047.09;6305970;22;20464;-84
2022/01/29 04:35:59;;;;;;;5.93;4.70;;;;;;;4.53;44.99;100003.94;6289477;22;19999;-85
2022/01/29 04:38:26;;;;;;;6.50;4.83;;;;;;;4.32;45.05;99960.28;6305833;22;20002;-83
2022/01/29 04:40:51;;;;;;;7.53;4.60;;;;;;;4.38;45.19;99993.75;6278245;22;20062;-84
2022/01/29 04:43:17;;;;;;;6.53;5.33;;;;;;;4.70;45.14;100037.34;6305812;22;20001;-85
2022/01/29 04:45:42;;;;;;;7.17;6.07;;;;;;;4.91;45.21;100076.56;6306031;22;20019;-83
2022/01/29 04:48:08;;;;;;;7.57;5.90;;;;;;;4.78;45.21;100075.00;6305774;22;19999;-84
2022/01/29 04:50:33;;;;;;;7.97;5.20;;;;;;;4.49;45.32;100039.13;6278857;22;20081;-83
2022/01/29 04:52:59;;;;;;;11.10;6.17;;;;;;;4.62;45.45;100071.16;6305660;22;20027;-84
2022/01/29 04:55:24;;;;;;;11.20;6.37;;;;;;;4.77;45.70;100090.81;6305978;22;20026;-83
2022/01/29 04:57:50;;;;;;;10.03;5.90;;;;;;;4.22;45.57;100009.06;6279509;22;20060;-83
2022/01/29 05:00:20;;;;;;;8.97;6.07;;;;;;;4.76;45.80;100099.63;6307951;22;19999;-84
2022/01/29 05:02:46;;;;;;;8.77;5.73;;;;;;;4.07;45.87;99981.56;6306816;22;20606;-82
2022/01/29 05:05:12;;;;;;;7.30;5.63;;;;;;;4.72;46.05;100098.22;6309150;22;19995;-83
2022/01/29 05:07:37;;;;;;;7.13;5.07;;;;;;;3.83;46.28;99948.66;6281357;22;20428;-82
2022/01/29 05:10:04;;;;;;;6.00;5.30;;;;;;;4.71;45.97;100086.09;6309479;22;20022;-82
2022/01/29 05:12:39;;;;;;;8.43;5.80;;;;;;;4.08;46.21;99994.50;6307860;22;20035;-83
2022/01/29 05:15:11;;;;;;;8.07;5.47;;;;;;;4.26;46.13;100000.00;6312816;22;20015;-83
2022/01/29 05:28:33;;;;;;;7.77;6.10;;;;;;;4.13;46.64;100028.09;6305239;22;20025;-77
2022/01/29 05:30:58;;;;;;;7.20;6.40;;;;;;;3.99;46.79;100031.00;6305358;22;20440;-77
2022/01/29 05:33:24;;;;;;;10.00;6.43;;;;;;;3.83;47.01;100016.56;6305105;22;20002;-77
2022/01/29 05:35:49;;;;;;;10.13;7.87;;;;;;;4.52;46.87;100117.31;6305188;22;20006;-76
2022/01/29 05:38:14;;;;;;;8.77;7.37;;;;;;;4.38;46.95;100090.50;6277868;22;20010;-77
2022/01/29 05:40:40;;;;;;;9.70;6.37;;;;;;;4.51;46.86;100111.28;6305270;22;19999;-77
2022/01/29 05:43:05;;;;;;;8.17;6.40;;;;;;;4.21;46.92;100058.84;6305270;22;20002;-77
2022/01/29 05:45:31;;;;;;;14.80;7.93;;;;;;;4.17;47.08;100055.66;6305214;22;20440;-77
2022/01/29 05:47:56;;;;;;;8.80;6.80;;;;;;;4.20;46.82;100060.63;6277912;22;20010;-77
2022/01/29 05:50:22;;;;;;;9.97;6.93;;;;;;;3.99;47.29;100033.63;6305267;22;20022;-77
2022/01/29 05:52:47;;;;;;;6.77;5.90;;;;;;;4.24;47.05;100080.34;6304936;22;20010;-77
2022/01/29 05:55:12;;;;;;;8.17;5.93;;;;;;;4.65;46.98;100131.06;6305249;22;20337;-77
2022/01/29 05:57:38;;;;;;;9.10;6.03;;;;;;;4.15;47.00;100062.78;6305420;22;20003;-77
2022/01/29 06:00:05;;;;;;;10.20;6.63;;;;;;;4.32;47.00;100100.63;6305368;22;19992;-77
2022/01/29 06:02:30;;;;;;;9.93;7.40;;;;;;;4.42;47.16;100112.81;6305535;22;20061;-77
2022/01/29 06:04:55;;;;;;;11.73;8.37;;;;;;;4.56;47.18;100130.03;6305086;22;20436;-77
2022/01/29 06:07:21;;;;;;;10.20;7.20;;;;;;;4.22;47.27;100086.63;6305149;22;20085;-77
2022/01/29 06:09:48;;;;;;;8.67;6.23;;;;;;;4.54;46.84;100124.09;6305236;22;19997;-77
2022/01/29 06:12:13;;;;;;;9.00;6.47;;;;;;;4.46;47.08;100119.50;6305031;22;20094;-77
2022/01/29 06:14:39;;;;;;;8.50;6.47;;;;;;;4.31;47.27;100091.94;6305238;22;20444;-77
2022/01/29 06:17:04;;;;;;;9.43;6.77;;;;;;;4.70;47.21;100149.81;6279814;22;20002;-77
2022/01/29 06:19:30;;;;;;;9.87;6.80;;;;;;;4.77;47.06;100158.81;6306964;22;20003;-77
2022/01/29 06:21:55;;;;;;;9.83;7.10;;;;;;;4.01;47.27;100032.53;6307089;22;20003;-77
2022/01/29 06:24:21;;;;;;;8.90;6.20;;;;;;;4.23;47.10;100073.44;6279872;22;20030;-77
2022/01/29 06:26:47;;;;;;;9.53;6.73;;;;;;;4.68;47.07;100136.03;6307039;22;19995;-77
2022/01/29 06:29:12;;;;;;;10.67;7.60;;;;;;;4.26;46.93;100074.97;6307031;22;20002;-77
2022/01/29 06:31:38;;;;;;;8.53;6.50;;;;;;;4.54;47.01;100120.66;6307034;22;20060;-77
2022/01/29 06:34:03;;;;;;;10.70;6.97;;;;;;;4.63;47.08;100143.44;6279498;22;20068;-77
2022/01/29 06:36:28;;;;;;;9.63;7.27;;;;;;;4.78;46.84;100176.19;6306637;22;20349;-77
2022/01/29 06:38:54;;;;;;;9.90;7.43;;;;;;;4.35;47.26;100108.22;6306850;22;19999;-77
2022/01/29 06:41:19;;;;;;;15.00;8.47;;;;;;;4.30;46.97;100108.59;6306811;22;19995;-77
2022/01/29 06:43:45;;;;;;;8.83;7.33;;;;;;;4.40;46.97;100134.81;6306948;22;20022;-77
2022/01/29 06:46:10;;;;;;;13.10;8.80;;;;;;;4.56;47.22;100148.34;6306844;22;20407;-77
2022/01/29 06:48:35;;;;;;;14.40;8.43;;;;;;;4.84;46.95;100191.38;6306904;22;20041;-77
2022/01/29 06:51:01;;;;;;;12.60;9.20;;;;;;;4.59;46.71;100155.94;6306535;22;20002;-77
2022/01/29 06:53:26;;;;;;;12.77;9.60;;;;;;;4.96;47.07;100205.25;6279053;22;19999;-77
2022/01/29 06:55:52;;;;;;;11.33;7.80;;;;;;;4.82;46.70;100187.22;6306422;22;20433;-77
2022/01/29 06:58:17;;;;;;;13.00;8.67;;;;;;;4.92;46.83;100199.44;6306496;22;19995;-77
2022/01/29 07:00:42;;;;;;;11.23;8.23;;;;;;;4.63;46.88;100146.88;6306461;22;20427;-77
2022/01/29 07:03:08;;;;;;;12.40;8.07;;;;;;;4.45;47.10;100141.31;6306292;22;19995;-77
2022/01/29 07:05:33;;;;;;;9.97;7.43;;;;;;;4.65;46.67;100155.44;6306287;22;20049;-77
2022/01/29 07:07:59;;;;;;;9.23;7.37;;;;;;;5.05;46.86;100231.47;6279776;22;19995;-77
2022/01/29 07:10:25;;;;;;;13.93;8.50;;;;;;;4.93;46.34;100182.78;6306436;22;19998;-77
2022/01/29 07:12:51;;;;;;;10.67;7.80;;;;;;;4.71;46.61;100143.63;6278839;22;20412;-77
2022/01/29 07:15:16;;;;;;;12.87;7.73;;;;;;;4.71;46.78;100144.47;6306537;22;20003;-78
2022/01/29 07:17:41;;;;;;;11.70;8.93;;;;;;;5.07;46.56;100194.72;6306495;22;20006;-77
2022/01/29 07:20:07;;;;;;;14.60;10.07;;;;;;;5.01;46.66;100192.59;6306338;22;19995;-77
2022/01/29 07:22:33;;;;;;;15.53;9.67;;;;;;;4.60;46.52;100101.84;6306386;22;20341;-77
2022/01/29 07:24:58;;;;;;;11.57;8.80;;;;;;;4.98;46.26;100156.22;6306440;22;20433;-86
2022/01/29 07:27:24;;;;;;;11.23;7.70;;;;;;;5.34;46.43;100204.72;6306351;22;20385;-86
2022/01/29 07:29:49;;;;;;;11.83;9.20;;;;;;;5.45;46.29;100220.34;6306399;22;19999;-86
2022/01/29 07:32:15;;;;;;;12.57;9.63;;;;;;;5.50;46.44;100218.16;6306248;22;19992;-86
2022/01/29 07:34:41;;;;;;;13.97;9.07;;;;;;;4.70;46.41;100095.72;6278800;22;20086;-86
2022/01/29 07:37:06;;;;;;;14.80;10.07;;;;;;;5.05;46.24;100184.38;6306112;22;20348;-87
2022/01/29 07:39:32;;;;;;;14.73;8.63;;;;;;;5.57;46.33;100221.94;6278572;22;20018;-84
2022/01/29 07:41:58;;;;;;;10.83;8.43;;;;;;;5.65;46.25;100224.72;6305972;22;20030;-84
2022/01/29 07:44:24;;;;;;;10.73;7.77;;;;;;;4.97;46.07;100100.44;6306219;22;19992;-84
2022/01/29 07:46:50;;;;;;;9.37;7.53;;;;;;;5.79;45.97;100228.81;6306119;22;20006;-86
2022/01/29 07:49:16;;;;;;;10.57;7.73;;;;;;;5.82;45.69;100232.94;6306407;22;20053;-86
2022/01/29 07:51:41;;;;;;;13.40;9.50;;;;;;;5.82;45.96;100228.53;6278656;22;20007;-86
2022/01/29 07:54:07;;;;;;;12.13;8.03;;;;;;;5.53;45.85;100189.09;6306037;22;20000;-85
2022/01/29 07:56:33;;;;;;;10.27;8.00;;;;;;;5.73;45.61;100221.47;6306387;22;20010;-87
2022/01/29 07:58:59;;;;;;;12.90;8.30;;;;;;;5.74;45.68;100233.59;6278809;22;20367;-86
2022/01/29 08:01:25;;;;;;;10.93;7.83;;;;;;;5.40;46.09;100176.22;6305945;22;20078;-86
2022/01/29 08:03:52;;;;;;;11.43;8.50;;;;;;;5.39;46.24;100171.09;6305755;22;20076;-86
2022/01/29 08:06:21;;;;;;;10.37;8.03;;;;;;;5.72;46.26;100246.84;6305803;22;19995;-86
2022/01/29 08:08:47;;;;;;;12.83;8.63;;;;;;;5.31;45.99;100160.44;6305959;22;20074;-86
2022/01/29 08:11:13;;;;;;;15.07;9.63;;;;;;;6.04;46.15;100261.66;6305943;22;20037;-86
2022/01/29 08:13:38;;;;;;;15.70;10.83;;;;;;;5.96;45.52;100232.66;6306329;22;20086;-85
2022/01/29 08:16:05;;;;;;;14.23;10.83;;;;;;;5.77;45.75;100196.66;6306062;22;20401;-86
2022/01/29 08:18:30;;;;;;;13.57;10.10;;;;;;;6.12;45.82;100233.00;6278646;22;19999;-86
2022/01/29 08:20:56;;;;;;;14.30;11.17;;;;;;;6.32;45.61;100271.44;6306112;22;20330;-87
2022/01/29 08:23:21;;;;;;;18.83;11.50;;;;;;;6.37;45.82;100266.63;6323683;22;19991;-86
2022/01/29 08:25:47;;;;;;;18.03;12.07;;;;;;;6.05;45.86;100209.09;6324656;22;19991;-87
2022/01/29 08:28:12;;;;;;;15.53;10.03;;;;;;;6.40;45.93;100269.94;6320028;22;20522;-86
2022/01/29 08:30:38;;;;;;;10.43;7.53;;;;;;;6.42;45.90;100274.09;6278915;22;19996;-86
2022/01/29 08:33:06;;;;;;;15.10;9.87;;;;;;;6.47;45.48;100271.91;6306385;22;19999;-87
2022/01/29 08:35:31;;;;;;;14.23;10.27;;;;;;;5.98;45.87;100191.44;6279118;22;20003;-87
2022/01/29 08:37:57;;;;;;;15.43;11.03;;;;;;;5.94;45.94;100172.47;6305940;22;20003;-87
2022/01/29 08:40:23;;;;;;;14.17;10.47;;;;;;;6.35;46.00;100247.56;6305455;22;20003;-87
2022/01/29 08:42:49;;;;;;;14.43;10.23;;;;;;;6.39;45.50;100248.13;6277924;22;20108;-85
2022/01/29 08:45:14;;;;;;;17.60;10.83;;;;;;;6.26;45.73;100230.00;6305454;22;20061;-85
2022/01/29 08:47:41;;;;;;;14.90;9.63;;;;;;;6.64;45.28;100289.63;6278095;22;20057;-88
2022/01/29 08:50:08;;;;;;;13.67;9.97;;;;;;;6.22;45.48;100217.31;6305720;22;19999;-88
2022/01/29 08:52:33;;;;;;;15.70;10.47;;;;;;;6.72;45.17;100277.66;6305638;22;19999;-87
2022/01/29 08:54:59;;;;;;;14.23;9.40;;;;;;;6.36;45.02;100225.63;6305485;22;20459;-86
2022/01/29 08:57:24;;;;;;;14.53;10.03;;;;;;;6.48;45.46;100257.81;6278444;22;20414;-85
2022/01/29 08:59:50;;;;;;;14.13;10.23;;;;;;;6.18;45.59;100215.91;6278024;22;20003;-86
2022/01/29 09:02:16;;;;;;;13.30;10.03;;;;;;;6.07;45.57;100201.13;6305563;22;19992;-86
2022/01/29 09:04:41;;;;;;;16.43;11.50;;;;;;;6.25;45.42;100236.22;6305512;22;20407;-88
2022/01/29 09:07:08;;;;;;;13.50;10.80;;;;;;;6.34;45.30;100222.31;6305618;22;20003;-86
2022/01/29 09:09:33;;;;;;;15.97;10.67;;;;;;;6.89;45.42;100296.19;6305754;22;19991;-86
2022/01/29 09:12:00;;;;;;;13.60;9.70;;;;;;;6.71;45.03;100247.13;6305589;22;20479;-88
2022/01/29 09:14:26;;;;;;;12.97;10.03;;;;;;;6.96;45.31;100283.34;6305330;22;19995;-89
2022/01/29 09:16:51;;;;;;;12.63;10.10;;;;;;;6.37;45.10;100192.34;6305042;22;20078;-88
2022/01/29 09:19:17;;;;;;;11.10;9.13;;;;;;;6.75;45.05;100225.72;6305340;22;20000;-88
2022/01/29 09:21:42;;;;;;;9.27;8.23;;;;;;;6.94;44.53;100251.97;6305172;22;19996;-87
2022/01/29 09:24:07;;;;;;;9.83;8.27;;;;;;;6.93;44.57;100260.00;6305499;22;19991;-78
2022/01/29 09:26:33;;;;;;;11.43;8.37;;;;;;;6.87;44.66;100229.88;6305327;22;20006;-79
2022/01/29 09:28:58;;;;;;;14.03;9.93;;;;;;;6.97;44.20;100235.13;6305227;22;20353;-79
2022/01/29 09:31:24;;;;;;;13.40;10.63;;;;;;;6.88;44.20;100207.06;6304969;22;20459;-78
2022/01/29 09:33:49;;;;;;;11.40;9.43;;;;;;;7.42;43.93;100280.03;6305085;22;19995;-79
2022/01/29 09:36:15;;;;;;;9.73;8.30;;;;;;;7.46;44.09;100268.28;6305055;22;20082;-79
2022/01/29 09:38:40;;;;;;;15.67;9.10;;;;;;;7.44;44.50;100275.50;6305215;22;20074;-79
2022/01/29 09:41:07;;;;;;;11.87;9.33;;;;;;;7.34;44.15;100236.06;6305481;22;19999;-79
2022/01/29 09:43:35;;;;;;;12.70;9.07;;;;;;;7.56;43.75;100260.41;6305290;22;19991;-79
2022/01/29 09:46:01;;;;;;;15.27;11.00;;;;;;;7.27;43.93;100221.00;6277691;22;20000;-77
2022/01/29 09:48:28;;;;;;;17.03;12.60;;;;;;;7.55;44.66;100267.44;6277736;22;20030;-78
2022/01/29 09:50:55;;;;;;;16.43;12.07;;;;;;;7.63;44.47;100279.88;6279779;22;20359;-78
2022/01/29 09:53:21;;;;;;;16.57;9.47;;;;;;;7.34;44.26;100224.72;6277961;22;20078;-77
2022/01/29 09:55:47;;;;;;;14.30;9.87;;;;;;;7.76;44.58;100283.03;6307309;22;20030;-78
2022/01/29 09:58:13;;;;;;;13.30;11.03;;;;;;;7.27;43.66;100173.72;6307273;22;19995;-78
2022/01/29 10:00:39;;;;;;;14.30;8.83;;;;;;;7.96;44.20;100292.53;6307167;22;20326;-77
2022/01/29 10:03:10;;;;;;;13.63;8.73;;;;;;;8.01;43.42;100284.22;6307312;22;19995;-78
2022/01/29 10:05:36;;;;;;;12.40;8.83;;;;;;;7.68;43.28;100224.25;6307193;22;20003;-78
2022/01/29 10:08:03;;;;;;;11.95;9.70;;;;;;;7.83;43.65;100244.69;6307129;22;20292;-78
2022/01/29 10:10:28;;;;;;;12.70;8.97;;;;;;;7.90;43.48;100244.94;6307124;22;20002;-78
2022/01/29 10:12:54;;;;;;;12.57;9.38;;;;;;;7.76;43.47;100198.09;6279844;22;20003;-78
2022/01/29 10:15:22;;;;;;;10.40;8.55;;;;;;;8.09;43.43;100239.63;6307031;22;19999;-77
2022/01/29 10:17:53;;;;;;;14.45;9.05;;;;;;;8.35;42.94;100260.88;6307013;22;19999;-79
2022/01/29 10:20:22;;;;;;;11.35;9.68;;;;;;;7.96;43.07;100189.97;6307184;22;20433;-78
2022/01/29 10:22:53;;;;;;;11.83;9.87;;;;;;;8.19;42.98;100226.44;6306934;22;20040;-77
2022/01/29 10:25:26;;;;;;;15.65;9.10;;;;;;;8.41;42.49;100252.41;6306838;22;20000;-78
2022/01/29 10:28:05;;;;;;;10.82;8.73;;;;;;;8.32;41.56;100257.69;6306816;22;20061;-78
2022/01/29 10:30:31;;;;;;;9.30;7.60;;;;;;;8.06;42.32;100210.16;6306881;22;19995;-79
2022/01/29 10:33:18;;;;;;;10.40;8.00;;;;;;;8.33;41.01;100251.44;6306830;22;20006;-78
2022/01/29 10:35:45;;;;;;;11.13;8.37;;;;;;;8.21;41.56;100221.88;6306745;22;20030;-77
2022/01/29 10:38:10;;;;;;;12.27;8.60;;;;;;;7.94;42.10;100168.25;6306923;22;20050;-78
2022/01/29 10:40:37;;;;;;;10.30;7.47;;;;;;;7.97;41.68;100151.38;6279311;22;20429;-78
2022/01/29 10:43:06;;;;;;;11.52;9.05;;;;;;;8.75;41.25;100257.88;6279437;22;20330;-78
2022/01/29 10:45:36;;;;;;;11.57;8.07;;;;;;;8.85;41.00;100263.91;6306767;22;20006;-78
2022/01/29 10:48:05;;;;;;;13.35;8.77;;;;;;;8.93;41.31;100267.63;6306780;22;19995;-77
2022/01/29 10:50:31;;;;;;;11.85;8.75;;;;;;;9.02;41.37;100266.72;6306596;22;19999;-78
2022/01/29 10:52:58;;;;;;;8.77;7.28;;;;;;;8.91;40.56;100244.03;6306560;22;20007;-78
2022/01/29 10:55:24;;;;;;;10.20;8.25;;;;;;;9.04;40.61;100276.13;6306391;22;20053;-78
2022/01/29 10:57:49;;;;;;;13.55;9.73;;;;;;;8.86;41.11;100212.88;6306301;22;19995;-78
2022/01/29 11:00:20;;;;;;;13.05;8.70;;;;;;;9.18;40.83;100254.53;6306172;22;19995;-78
2022/01/29 11:02:48;;;;;;;9.43;7.63;;;;;;;8.87;40.65;100205.81;6306691;22;19992;-77
2022/01/29 11:05:14;;;;;;;11.57;8.15;;;;;;;9.16;40.78;100232.78;6306329;22;20011;-78
2022/01/29 11:07:42;;;;;;;9.55;7.18;;;;;;;9.30;40.15;100243.75;6279122;22;20367;-78
2022/01/29 11:10:09;;;;;;;9.73;7.40;;;;;;;9.27;40.05;100252.78;6306853;22;20006;-78
2022/01/29 11:12:38;;;;;;;8.52;6.20;;;;;;;9.29;39.91;100250.81;6306537;22;20345;-78
2022/01/29 11:15:05;;;;;;;9.32;6.68;;;;;;;9.05;39.81;100227.75;6306391;22;20449;-78
2022/01/29 11:17:31;;;;;;;8.15;5.95;;;;;;;8.88;39.52;100189.03;6306301;22;20022;-78
2022/01/29 11:19:58;;;;;;;7.72;6.45;;;;;;;9.24;39.76;100263.63;6279109;22;20010;-77
2022/01/29 11:22:39;;;;;;;8.20;6.25;;;;;;;8.79;39.06;100193.41;6306461;22;20459;-78
2022/01/29 11:25:11;;;;;;;7.63;6.65;;;;;;;8.57;39.90;100163.09;6306595;22;20019;-78
2022/01/29 11:27:38;;;;;;;7.97;6.32;;;;;;;9.04;39.49;100255.06;6306394;22;20022;-78
2022/01/29 11:30:09;;;;;;;8.35;6.03;;;;;;;9.10;39.13;100264.16;6306190;22;19999;-78
2022/01/29 11:32:44;;;;;;;6.85;5.43;;;;;;;9.08;39.55;100248.50;6306463;22;20007;-78
2022/01/29 11:35:51;;;;;;;7.97;6.32;;;;;;;8.98;39.07;100220.59;6306216;22;19999;-78
2022/01/29 11:38:27;;;;;;;9.40;7.38;;;;;;;8.79;39.66;100196.03;6263323;22;20009;-78
2022/01/29 11:41:11;;;;;;;10.15;8.50;;;;;;;9.06;39.75;100257.53;6306087;22;20001;-78